createdAt,value
2019-03-01T00:00:43.502Z,45.11
2019-03-01T00:03:13.181Z,45.28
2019-03-01T00:06:11.993Z,43.96
2019-03-01T00:09:12.183Z,43.71
2019-03-01T00:12:06.553Z,41.30
2019-03-01T00:15:03.570Z,40.74
2019-03-01T00:17:56.128Z,41.61
2019-03-01T00:21:12.823Z,40.73
2019-03-01T00:24:38.195Z,40.04
2019-03-01T00:27:50.355Z,39.40
2019-03-01T00:30:51.015Z,39.19
2019-03-01T00:34:02.042Z,39.30
2019-03-01T00:36:58.187Z,38.45
2019-03-01T00:39:50.450Z,39.70
2019-03-01T00:43:04.894Z,38.86
2019-03-01T00:45:34.766Z,37.99
2019-03-01T00:48:04.562Z,38.93
2019-03-01T00:50:34.275Z,38.14
2019-03-01T00:53:04.006Z,39.07
2019-03-01T00:55:33.716Z,41.62
2019-03-01T00:58:03.459Z,41.47
2019-03-01T01:00:39.724Z,41.54
2019-03-01T01:03:09.443Z,39.12
2019-03-01T01:05:39.185Z,38.49
2019-03-01T01:08:08.871Z,37.79
2019-03-01T01:10:38.555Z,37.75
2019-03-01T01:13:08.244Z,36.65
2019-03-01T01:15:37.934Z,36.07
2019-03-01T01:18:07.770Z,35.92
2019-03-01T01:20:37.483Z,36.08
2019-03-01T01:23:07.214Z,36.08
2019-03-01T01:25:36.888Z,36.16
2019-03-01T01:28:06.589Z,35.72
2019-03-01T01:30:36.301Z,35.74
2019-03-01T01:33:06.006Z,35.58
2019-03-01T01:35:35.757Z,35.55
2019-03-01T01:38:05.435Z,35.10
2019-03-01T01:40:35.173Z,34.65
2019-03-01T01:43:04.877Z,34.86
2019-03-01T01:45:34.608Z,35.10
2019-03-01T01:48:04.321Z,35.07
2019-03-01T01:50:34.040Z,35.28
2019-03-01T01:53:03.757Z,34.98
2019-03-01T01:55:33.458Z,35.39
2019-03-01T01:58:03.173Z,35.63
2019-03-01T02:00:32.868Z,35.86
2019-03-01T02:03:02.603Z,35.57
2019-03-01T02:05:32.310Z,35.26
2019-03-01T02:08:02.027Z,35.47
2019-03-01T02:10:31.709Z,35.74
2019-03-01T02:13:01.403Z,35.67
2019-03-01T02:15:31.113Z,35.47
2019-03-01T02:18:00.831Z,36.29
2019-03-01T02:20:30.516Z,35.60
2019-03-01T02:23:00.225Z,35.95
2019-03-01T02:25:29.922Z,36.18
2019-03-01T02:27:59.622Z,36.22
2019-03-01T02:30:29.555Z,36.20
2019-03-01T02:32:59.264Z,35.90
2019-03-01T02:35:29.368Z,36.25
2019-03-01T02:37:59.066Z,37.16
2019-03-01T02:40:28.781Z,37.25
2019-03-01T02:42:58.492Z,37.32
2019-03-01T02:45:28.278Z,37.37
2019-03-01T02:47:58.032Z,37.10
2019-03-01T02:50:27.744Z,36.98
2019-03-01T02:52:57.440Z,37.49
2019-03-01T02:55:27.151Z,37.91
2019-03-01T02:57:56.869Z,37.66
2019-03-01T03:00:28.157Z,38.06
2019-03-01T03:02:57.854Z,37.56
2019-03-01T03:05:27.646Z,37.94
2019-03-01T03:07:59.363Z,38.56
2019-03-01T03:10:29.064Z,38.76
2019-03-01T03:13:01.248Z,38.45
2019-03-01T03:15:36.592Z,38.42
2019-03-01T03:18:06.385Z,39.28
2019-03-01T03:20:36.130Z,38.97
2019-03-01T03:23:05.862Z,39.04
2019-03-01T03:25:35.644Z,39.48
2019-03-01T03:28:05.337Z,39.38
2019-03-01T03:30:35.086Z,39.21
2019-03-01T03:33:04.855Z,39.32
2019-03-01T03:35:34.718Z,39.30
2019-03-01T03:38:04.427Z,38.81
2019-03-01T03:40:34.133Z,39.15
2019-03-01T03:43:03.825Z,39.62
2019-03-01T03:45:33.529Z,40.07
2019-03-01T03:48:03.253Z,40.19
2019-03-01T03:50:32.997Z,40.34
2019-03-01T03:53:02.838Z,41.00
2019-03-01T03:55:32.526Z,40.18
2019-03-01T03:58:02.195Z,39.90
2019-03-01T04:00:31.895Z,40.28
2019-03-01T04:03:01.644Z,39.77
2019-03-01T04:05:31.364Z,40.23
2019-03-01T04:08:01.119Z,41.02
2019-03-01T04:10:30.901Z,40.75
2019-03-01T04:13:00.729Z,40.65
2019-03-01T04:15:30.447Z,41.58
2019-03-01T04:18:00.146Z,41.47
2019-03-01T04:20:29.882Z,41.47
2019-03-01T04:22:59.677Z,41.87
2019-03-01T04:25:29.471Z,41.89
2019-03-01T04:27:59.268Z,42.10
2019-03-01T04:30:29.000Z,42.44
2019-03-01T04:32:58.711Z,42.73
2019-03-01T04:35:28.469Z,42.72
2019-03-01T04:37:58.191Z,42.92
2019-03-01T04:40:28.003Z,43.49
2019-03-01T04:42:57.801Z,43.42
2019-03-01T04:45:27.548Z,44.01
2019-03-01T04:47:57.248Z,44.09
2019-03-01T04:50:26.958Z,44.14
2019-03-01T04:52:56.724Z,44.72
2019-03-01T04:55:26.993Z,44.24
2019-03-01T04:57:56.729Z,44.21
2019-03-01T05:00:26.637Z,43.82
2019-03-01T05:02:56.351Z,44.20
2019-03-01T05:05:26.049Z,44.21
2019-03-01T05:07:55.759Z,44.30
2019-03-01T05:10:25.534Z,44.11
2019-03-01T05:12:55.253Z,43.75
2019-03-01T05:15:24.958Z,43.56
2019-03-01T05:17:54.673Z,43.55
2019-03-01T05:20:24.395Z,43.44
2019-03-01T05:22:54.182Z,42.78
2019-03-01T05:25:23.858Z,42.45
2019-03-01T05:27:53.608Z,42.02
2019-03-01T05:30:23.335Z,42.38
2019-03-01T05:32:53.043Z,41.99
2019-03-01T05:35:22.849Z,42.17
2019-03-01T05:37:52.626Z,42.61
2019-03-01T05:40:22.347Z,41.66
2019-03-01T05:42:52.163Z,40.57
2019-03-01T05:45:23.264Z,40.36
2019-03-01T05:47:53.093Z,39.48
2019-03-01T05:50:22.805Z,39.46
2019-03-01T05:52:52.495Z,38.85
2019-03-01T05:55:22.220Z,39.10
2019-03-01T05:58:38.078Z,39.57
2019-03-01T06:01:35.329Z,39.76
2019-03-01T06:04:17.761Z,39.59
2019-03-01T06:07:31.644Z,39.27
2019-03-01T06:10:40.927Z,39.17
2019-03-01T06:13:49.761Z,39.14
2019-03-01T06:16:37.512Z,39.47
2019-03-01T06:19:35.676Z,39.24
2019-03-01T06:22:40.364Z,39.18
2019-03-01T06:25:26.007Z,38.76
2019-03-01T06:28:35.563Z,38.67
2019-03-01T06:32:07.067Z,38.52
2019-03-01T06:34:59.735Z,38.57
2019-03-01T06:38:13.189Z,38.22
2019-03-01T06:41:27.945Z,38.06
2019-03-01T06:44:20.903Z,38.18
2019-03-01T06:47:25.948Z,38.16
2019-03-01T06:50:08.256Z,38.46
2019-03-01T06:52:37.966Z,39.20
2019-03-01T06:55:09.677Z,38.71
2019-03-01T06:57:39.413Z,38.46
2019-03-01T07:00:10.088Z,38.25
2019-03-01T07:02:43.979Z,38.60
2019-03-01T07:05:13.746Z,38.58
2019-03-01T07:07:43.604Z,37.45
2019-03-01T07:10:13.338Z,37.36
2019-03-01T07:12:43.029Z,36.87
2019-03-01T07:15:13.005Z,36.08
2019-03-01T07:17:42.691Z,36.25
2019-03-01T07:20:12.728Z,35.89
2019-03-01T07:22:42.435Z,36.00
2019-03-01T07:25:12.251Z,36.12
2019-03-01T07:27:42.036Z,36.45
2019-03-01T07:30:11.805Z,36.22
2019-03-01T07:32:41.523Z,35.99
2019-03-01T07:35:11.249Z,35.34
2019-03-01T07:37:41.007Z,35.82
2019-03-01T07:40:10.753Z,36.24
2019-03-01T07:42:40.557Z,36.60
2019-03-01T07:45:10.766Z,36.79
2019-03-01T07:47:40.472Z,37.74
2019-03-01T07:50:10.798Z,38.36
2019-03-01T07:52:40.511Z,38.04
2019-03-01T07:55:10.228Z,37.81
2019-03-01T07:57:40.015Z,37.93
2019-03-01T08:00:14.177Z,37.96
2019-03-01T08:02:45.615Z,38.21
2019-03-01T08:05:16.607Z,37.78
2019-03-01T08:07:55.723Z,37.78
2019-03-01T08:10:22.379Z,37.42
2019-03-01T08:12:49.657Z,37.68
2019-03-01T08:15:19.356Z,37.96
2019-03-01T08:17:49.089Z,37.05
2019-03-01T08:20:18.822Z,37.28
2019-03-01T08:22:49.655Z,37.21
2019-03-01T08:25:23.435Z,36.91
2019-03-01T08:27:51.285Z,37.13
2019-03-01T08:30:23.290Z,36.81
2019-03-01T08:32:53.172Z,35.97
2019-03-01T08:35:25.333Z,36.33
2019-03-01T08:37:54.436Z,36.34
2019-03-01T08:40:24.246Z,36.68
2019-03-01T08:42:54.063Z,35.99
2019-03-01T08:45:23.976Z,35.84
2019-03-01T08:47:55.509Z,35.70
2019-03-01T08:50:25.125Z,36.26
2019-03-01T08:52:54.839Z,35.89
2019-03-01T08:55:24.908Z,35.37
2019-03-01T08:57:54.630Z,35.36
2019-03-01T09:00:28.132Z,35.92
2019-03-01T09:03:00.146Z,35.68
2019-03-01T09:05:29.946Z,35.74
2019-03-01T09:07:59.675Z,34.95
2019-03-01T09:10:32.748Z,35.21
2019-03-01T09:13:00.819Z,34.34
2019-03-01T09:15:30.555Z,34.65
2019-03-01T09:18:00.337Z,34.47
2019-03-01T09:20:32.541Z,35.32
2019-03-01T09:23:04.887Z,34.05
2019-03-01T09:25:33.179Z,34.22
2019-03-01T09:28:03.030Z,33.41
2019-03-01T09:30:32.767Z,33.23
2019-03-01T09:33:02.504Z,33.75
2019-03-01T09:35:54.205Z,33.88
2019-03-01T09:38:23.937Z,33.74
2019-03-01T09:40:53.771Z,33.15
2019-03-01T09:43:24.688Z,33.01
2019-03-01T09:45:54.988Z,32.59
2019-03-01T09:48:24.685Z,33.27
2019-03-01T09:50:54.517Z,32.21
2019-03-01T09:53:24.289Z,32.29
2019-03-01T09:55:54.118Z,32.23
2019-03-01T09:58:23.945Z,32.38
2019-03-01T10:00:58.409Z,32.63
2019-03-01T10:03:28.152Z,32.25
2019-03-01T10:05:57.898Z,32.02
2019-03-01T10:08:27.639Z,31.63
2019-03-01T10:10:57.383Z,32.03
2019-03-01T10:13:27.140Z,31.87
2019-03-01T10:15:56.838Z,30.91
2019-03-01T10:18:26.554Z,30.31
2019-03-01T10:20:56.347Z,29.97
2019-03-01T10:23:26.018Z,30.07
2019-03-01T10:25:55.669Z,30.26
2019-03-01T10:28:25.260Z,30.28
2019-03-01T10:30:54.843Z,30.08
2019-03-01T10:33:24.405Z,30.43
2019-03-01T10:35:53.970Z,30.20
2019-03-01T10:38:23.578Z,29.80
2019-03-01T10:40:53.192Z,29.99
2019-03-01T10:43:23.529Z,30.95
2019-03-01T10:45:53.347Z,31.58
2019-03-01T10:48:23.023Z,30.46
2019-03-01T10:50:52.818Z,30.25
2019-03-01T10:53:22.399Z,29.92
2019-03-01T10:55:52.801Z,29.53
2019-03-01T10:58:22.371Z,29.55
2019-03-01T11:00:51.948Z,29.87
2019-03-01T11:03:21.528Z,29.96
2019-03-01T11:05:52.967Z,28.86
2019-03-01T11:08:22.577Z,27.16
2019-03-01T11:10:52.220Z,27.01
2019-03-01T11:13:21.949Z,26.90
2019-03-01T11:15:52.098Z,26.47
2019-03-01T11:18:21.844Z,27.27
2019-03-01T11:20:51.585Z,27.23
2019-03-01T11:23:21.115Z,27.50
2019-03-01T11:25:50.764Z,27.75
2019-03-01T11:28:20.336Z,27.31
2019-03-01T11:30:50.049Z,28.18
2019-03-01T11:33:19.634Z,28.28
2019-03-01T11:35:49.195Z,27.71
2019-03-01T11:38:18.754Z,27.30
2019-03-01T11:40:48.407Z,26.37
2019-03-01T11:43:18.149Z,26.25
2019-03-01T11:45:47.834Z,25.78
2019-03-01T11:48:17.395Z,25.68
2019-03-01T11:50:46.936Z,25.18
2019-03-01T11:53:16.487Z,26.91
2019-03-01T11:55:46.100Z,27.50
2019-03-01T11:58:15.771Z,28.03
2019-03-01T12:00:52.108Z,29.35
2019-03-01T12:03:16.677Z,30.43
2019-03-01T12:05:46.237Z,30.73
2019-03-01T12:08:15.835Z,31.11
2019-03-01T12:10:45.363Z,31.48
2019-03-01T12:13:14.954Z,31.63
2019-03-01T12:15:44.542Z,32.14
2019-03-01T12:18:14.299Z,32.63
2019-03-01T12:20:43.865Z,32.77
2019-03-01T12:23:13.403Z,32.80
2019-03-01T12:25:42.978Z,33.28
2019-03-01T12:28:12.613Z,33.62
2019-03-01T12:30:42.151Z,33.79
2019-03-01T12:33:11.707Z,34.55
2019-03-01T12:35:41.391Z,35.13
2019-03-01T12:38:10.975Z,34.99
2019-03-01T12:40:40.732Z,35.43
2019-03-01T12:43:10.272Z,35.87
2019-03-01T12:45:39.845Z,36.24
2019-03-01T12:48:09.448Z,36.47
2019-03-01T12:50:39.047Z,36.39
2019-03-01T12:53:08.599Z,36.08
2019-03-01T12:55:38.209Z,35.74
2019-03-01T12:58:07.893Z,35.41
2019-03-01T13:00:37.612Z,34.20
2019-03-01T13:03:09.233Z,34.40
2019-03-01T13:05:38.429Z,34.57
2019-03-01T13:08:08.179Z,34.16
2019-03-01T13:10:40.378Z,34.31
2019-03-01T13:13:09.157Z,33.73
2019-03-01T13:15:38.863Z,33.63
2019-03-01T13:18:09.783Z,33.64
2019-03-01T13:20:39.904Z,33.53
2019-03-01T13:23:09.593Z,32.67
2019-03-01T13:25:39.122Z,33.05
2019-03-01T13:28:08.668Z,33.03
2019-03-01T13:30:38.249Z,33.17
2019-03-01T13:33:07.811Z,32.76
2019-03-01T13:35:37.388Z,32.63
2019-03-01T13:38:06.937Z,33.15
2019-03-01T13:40:36.513Z,33.70
2019-03-01T13:43:06.174Z,33.74
2019-03-01T13:45:35.847Z,33.20
2019-03-01T13:48:05.404Z,33.41
2019-03-01T13:50:35.094Z,34.05
2019-03-01T13:53:06.546Z,33.76
2019-03-01T13:55:36.222Z,34.16
2019-03-01T13:58:05.776Z,33.50
2019-03-01T14:00:35.441Z,32.87
2019-03-01T14:03:05.089Z,32.97
2019-03-01T14:05:34.801Z,32.96
2019-03-01T14:08:08.979Z,33.19
2019-03-01T14:10:38.565Z,33.02
2019-03-01T14:13:07.045Z,33.45
2019-03-01T14:15:38.259Z,33.49
2019-03-01T14:18:08.067Z,33.54
2019-03-01T14:20:37.671Z,34.01
2019-03-01T14:23:07.294Z,34.12
2019-03-01T14:25:38.594Z,34.73
2019-03-01T14:28:08.284Z,34.57
2019-03-01T14:30:37.821Z,35.04
2019-03-01T14:33:07.402Z,34.41
2019-03-01T14:35:37.061Z,34.42
2019-03-01T14:38:08.266Z,34.24
2019-03-01T14:40:38.009Z,35.09
2019-03-01T14:43:07.615Z,35.42
2019-03-01T14:45:37.198Z,35.09
2019-03-01T14:48:08.808Z,35.09
2019-03-01T14:50:38.219Z,35.25
2019-03-01T14:53:07.767Z,36.06
2019-03-01T14:55:40.484Z,36.16
2019-03-01T14:58:23.469Z,35.84
2019-03-01T15:01:03.075Z,36.05
2019-03-01T15:03:31.647Z,36.69
2019-03-01T15:06:01.362Z,36.50
2019-03-01T15:08:31.318Z,36.89
2019-03-01T15:11:04.348Z,37.44
2019-03-01T15:13:35.821Z,37.46
2019-03-01T15:16:06.072Z,37.26
2019-03-01T15:18:36.134Z,37.41
2019-03-01T15:21:06.666Z,37.85
2019-03-01T15:23:36.474Z,37.65
2019-03-01T15:26:06.232Z,38.18
2019-03-01T15:29:00.260Z,38.36
2019-03-01T15:31:29.813Z,38.97
2019-03-01T15:33:59.482Z,38.97
2019-03-01T15:36:29.101Z,39.29
2019-03-01T15:38:58.713Z,39.63
2019-03-01T15:41:28.283Z,39.35
2019-03-01T15:43:57.842Z,39.74
2019-03-01T15:46:27.509Z,39.84
2019-03-01T15:48:57.190Z,40.52
2019-03-01T15:51:27.301Z,40.92
2019-03-01T15:53:57.541Z,41.62
2019-03-01T15:56:28.350Z,41.15
2019-03-01T15:58:57.972Z,41.53
2019-03-01T16:01:27.577Z,41.33
2019-03-01T16:03:58.028Z,41.51
2019-03-01T16:06:27.610Z,42.64
2019-03-01T16:08:57.181Z,42.31
2019-03-01T16:11:27.226Z,42.73
2019-03-01T16:13:56.836Z,42.86
2019-03-01T16:16:26.586Z,42.96
2019-03-01T16:18:56.216Z,43.28
2019-03-01T16:21:26.002Z,43.76
2019-03-01T16:23:55.651Z,44.68
2019-03-01T16:26:29.889Z,44.48
2019-03-01T16:28:56.685Z,44.59
2019-03-01T16:31:29.031Z,45.31
2019-03-01T16:33:57.531Z,45.79
2019-03-01T16:36:31.949Z,46.90
2019-03-01T16:39:01.609Z,46.61
2019-03-01T16:41:31.221Z,47.41
2019-03-01T16:44:01.304Z,47.92
2019-03-01T16:46:32.228Z,47.86
2019-03-01T16:49:01.925Z,47.90
2019-03-01T16:51:31.600Z,48.46
2019-03-01T16:54:01.231Z,48.44
2019-03-01T16:56:30.936Z,48.78
2019-03-01T16:59:03.816Z,49.37
2019-03-01T17:01:31.805Z,49.45
2019-03-01T17:04:01.364Z,49.63
2019-03-01T17:06:31.029Z,48.97
2019-03-01T17:09:00.694Z,49.41
2019-03-01T17:11:30.406Z,49.64
2019-03-01T17:14:02.738Z,49.71
2019-03-01T17:16:31.551Z,49.97
2019-03-01T17:19:01.211Z,49.96
2019-03-01T17:21:30.783Z,50.70
2019-03-01T17:24:00.425Z,51.62
2019-03-01T17:26:30.810Z,50.86
2019-03-01T17:29:03.179Z,51.40
2019-03-01T17:31:31.922Z,51.67
2019-03-01T17:34:01.690Z,51.62
2019-03-01T17:36:31.260Z,51.76
2019-03-01T17:39:00.801Z,51.99
2019-03-01T17:41:30.429Z,52.44
2019-03-01T17:44:00.125Z,52.18
2019-03-01T17:46:32.665Z,52.78
2019-03-01T17:49:00.905Z,52.74
2019-03-01T17:51:30.588Z,52.67
2019-03-01T17:54:00.382Z,52.14
2019-03-01T17:56:29.996Z,52.23
2019-03-01T17:58:59.674Z,51.95
2019-03-01T18:01:29.306Z,52.03
2019-03-01T18:04:01.931Z,52.39
2019-03-01T18:06:30.144Z,52.12
2019-03-01T18:08:59.684Z,52.39
2019-03-01T18:11:29.240Z,52.57
2019-03-01T18:14:00.795Z,52.25
2019-03-01T18:16:30.718Z,52.40
2019-03-01T18:19:01.327Z,52.59
2019-03-01T18:21:30.938Z,52.59
2019-03-01T18:24:02.405Z,51.81
2019-03-01T18:26:31.768Z,51.87
2019-03-01T18:29:04.415Z,51.92
2019-03-01T18:31:34.625Z,51.95
2019-03-01T18:34:03.964Z,51.91
2019-03-01T18:36:33.523Z,51.88
2019-03-01T18:39:03.711Z,51.51
2019-03-01T18:41:34.731Z,51.53
2019-03-01T18:44:04.320Z,51.90
2019-03-01T18:46:33.940Z,51.77
2019-03-01T18:49:03.646Z,51.88
2019-03-01T18:51:33.277Z,51.80
2019-03-01T18:54:04.017Z,51.95
2019-03-01T18:56:34.325Z,52.16
2019-03-01T18:59:04.031Z,52.32
2019-03-01T19:01:33.567Z,52.82
2019-03-01T19:04:03.232Z,52.87
2019-03-01T19:06:32.847Z,53.18
2019-03-01T19:09:02.448Z,53.75
2019-03-01T19:11:34.727Z,53.31
2019-03-01T19:14:03.425Z,53.68
2019-03-01T19:16:33.051Z,53.82
2019-03-01T19:19:02.630Z,54.21
2019-03-01T19:21:32.397Z,54.60
2019-03-01T19:24:04.695Z,54.71
2019-03-01T19:26:33.824Z,54.88
2019-03-01T19:29:04.947Z,54.71
2019-03-01T19:31:34.679Z,54.54
2019-03-01T19:34:04.374Z,54.72
2019-03-01T19:36:35.576Z,54.79
2019-03-01T19:39:05.923Z,54.93
2019-03-01T19:41:35.624Z,55.26
2019-03-01T19:44:05.179Z,55.86
2019-03-01T19:46:35.737Z,56.49
2019-03-01T19:49:05.387Z,56.88
2019-03-01T19:51:37.519Z,56.69
2019-03-01T19:54:08.335Z,57.07
2019-03-01T19:56:38.081Z,57.07
2019-03-01T19:59:07.724Z,57.49
2019-03-01T20:01:37.376Z,57.16
2019-03-01T20:04:06.942Z,57.51
2019-03-01T20:06:39.736Z,57.81
2019-03-01T20:09:08.883Z,57.74
2019-03-01T20:11:39.363Z,58.04
2019-03-01T20:14:10.326Z,58.59
2019-03-01T20:16:40.024Z,58.53
2019-03-01T20:19:09.790Z,59.02
2019-03-01T20:21:41.347Z,58.42
2019-03-01T20:24:11.458Z,58.23
2019-03-01T20:26:41.067Z,58.22
2019-03-01T20:29:10.728Z,58.28
2019-03-01T20:31:41.992Z,58.54
2019-03-01T20:34:11.692Z,58.41
2019-03-01T20:36:41.858Z,58.39
2019-03-01T20:39:11.775Z,58.41
2019-03-01T20:41:46.330Z,58.77
2019-03-01T20:44:14.737Z,58.53
2019-03-01T20:46:45.506Z,58.71
2019-03-01T20:49:15.138Z,59.25
2019-03-01T20:51:44.837Z,59.34
2019-03-01T20:54:14.475Z,59.11
2019-03-01T20:56:44.012Z,59.08
2019-03-01T20:59:15.427Z,59.13
2019-03-01T21:01:45.044Z,59.17
2019-03-01T21:04:14.676Z,59.21
2019-03-01T21:06:44.315Z,59.28
2019-03-01T21:09:13.878Z,58.99
2019-03-01T21:11:43.485Z,58.95
2019-03-01T21:14:13.023Z,59.23
2019-03-01T21:16:44.862Z,59.05
2019-03-01T21:19:13.859Z,59.10
2019-03-01T21:21:43.386Z,58.98
2019-03-01T21:24:13.034Z,58.84
2019-03-01T21:26:42.566Z,58.82
2019-03-01T21:29:13.423Z,59.19
2019-03-01T21:31:43.158Z,59.81
2019-03-01T21:34:14.874Z,59.73
2019-03-01T21:36:44.370Z,59.45
2019-03-01T21:39:14.127Z,59.17
2019-03-01T21:41:44.862Z,59.45
2019-03-01T21:44:15.006Z,59.54
2019-03-01T21:46:44.585Z,59.57
2019-03-01T21:49:14.143Z,59.29
2019-03-01T21:51:43.809Z,59.25
2019-03-01T21:54:16.412Z,58.85
2019-03-01T21:56:55.339Z,57.90
2019-03-01T21:59:17.330Z,57.93
2019-03-01T22:01:47.299Z,57.42
2019-03-01T22:04:16.843Z,57.49
2019-03-01T22:06:46.473Z,57.66
2019-03-01T22:09:16.087Z,57.96
2019-03-01T22:11:48.836Z,57.96
2019-03-01T22:14:16.964Z,58.24
2019-03-01T22:16:46.500Z,57.90
2019-03-01T22:19:16.114Z,58.05
2019-03-01T22:21:45.693Z,58.08
2019-03-01T22:24:15.397Z,57.81
2019-03-01T22:26:46.598Z,58.07
2019-03-01T22:29:16.454Z,58.09
2019-03-01T22:31:46.169Z,58.36
2019-03-01T22:34:15.785Z,58.37
2019-03-01T22:36:45.446Z,58.34
2019-03-01T22:39:16.613Z,58.67
2019-03-01T22:41:46.473Z,58.65
2019-03-01T22:44:16.224Z,58.55
2019-03-01T22:46:45.793Z,58.84
2019-03-01T22:49:15.428Z,58.86
2019-03-01T22:51:45.154Z,59.05
2019-03-01T22:54:17.830Z,59.52
2019-03-01T22:56:48.517Z,60.57
2019-03-01T22:59:17.505Z,60.65
2019-03-01T23:01:49.626Z,61.13
2019-03-01T23:04:19.287Z,62.10
2019-03-01T23:06:51.457Z,63.20
2019-03-01T23:09:20.684Z,63.64
2019-03-01T23:11:50.242Z,62.68
2019-03-01T23:14:19.912Z,61.60
2019-03-01T23:16:50.709Z,61.71
2019-03-01T23:19:20.962Z,61.55
2019-03-01T23:21:50.495Z,60.86
2019-03-01T23:24:20.143Z,60.98
2019-03-01T23:26:49.738Z,61.13
2019-03-01T23:29:20.089Z,61.09
2019-03-01T23:31:49.648Z,60.98
2019-03-01T23:34:19.195Z,60.83
2019-03-01T23:36:48.800Z,60.79
2019-03-01T23:39:21.695Z,60.87
2019-03-01T23:41:49.760Z,60.52
2019-03-01T23:44:19.424Z,60.32
2019-03-01T23:46:48.953Z,60.64
2019-03-01T23:49:20.555Z,60.82
2019-03-01T23:51:50.066Z,61.06
2019-03-01T23:54:19.624Z,61.42
2019-03-01T23:56:49.223Z,61.65
2019-03-01T23:59:18.917Z,61.45
